Time;durP1;ratioP1;P1;durP2;ratioP2;P2;SDS_P1;SDS_P2;PMS_P1;PMS_P2;Temp;Humidity;BMP_temperature;BMP_pressure;BME280_temperature;BME280_humidity;BME280_pressure;Samples;Min_cycle;Max_cycle;Signal;HPM_P1;HPM_P2
2022/05/08 00:01:00;;;;;;;20.48;5.38;;;7.10;99.90;;;;;;5074954;28;20116;-75
2022/05/08 00:03:26;;;;;;;12.55;4.50;;;7.00;99.90;;;;;;5074693;28;20108;-75
2022/05/08 00:05:51;;;;;;;23.02;5.65;;;7.00;99.90;;;;;;5092751;28;20119;-75
2022/05/08 00:08:17;;;;;;;24.58;6.03;;;7.00;99.90;;;;;;5074988;28;20101;-75
2022/05/08 00:10:43;;;;;;;18.60;4.90;;;6.90;99.90;;;;;;5074802;28;20048;-77
2022/05/08 00:13:11;;;;;;;24.75;5.63;;;6.90;99.90;;;;;;5092491;28;20044;-75
2022/05/08 00:15:38;;;;;;;21.38;4.70;;;6.80;99.90;;;;;;5092584;28;20119;-75
2022/05/08 00:18:04;;;;;;;20.27;5.45;;;6.80;99.90;;;;;;5092345;28;20098;-77
2022/05/08 00:20:31;;;;;;;17.98;4.72;;;6.80;99.90;;;;;;5074627;28;20047;-75
2022/05/08 00:22:57;;;;;;;20.13;4.88;;;6.70;99.90;;;;;;5092391;28;20404;-74
2022/05/08 00:25:24;;;;;;;27.45;5.05;;;6.70;99.90;;;;;;5074489;28;20408;-75
2022/05/08 00:27:49;;;;;;;18.38;5.22;;;6.60;99.90;;;;;;5092312;28;20109;-75
2022/05/08 00:30:15;;;;;;;24.05;4.97;;;6.60;99.90;;;;;;5092234;28;20441;-74
2022/05/08 00:32:41;;;;;;;12.80;5.10;;;6.60;99.90;;;;;;5095396;28;20441;-75
2022/05/08 00:35:09;;;;;;;15.73;4.85;;;6.50;99.90;;;;;;5096688;28;20043;-76
2022/05/08 00:37:36;;;;;;;14.90;3.80;;;6.50;99.90;;;;;;5096357;28;20098;-76
2022/05/08 00:40:02;;;;;;;17.65;5.50;;;6.50;99.90;;;;;;5096445;28;20130;-75
2022/05/08 00:42:28;;;;;;;10.40;3.60;;;6.50;99.90;;;;;;5096369;28;20114;-76
2022/05/08 00:44:54;;;;;;;12.88;5.85;;;6.40;99.90;;;;;;5078346;28;20075;-77
2022/05/08 00:47:20;;;;;;;11.88;3.80;;;6.40;99.90;;;;;;5096354;28;20036;-76
2022/05/08 00:49:45;;;;;;;13.10;5.50;;;6.30;99.90;;;;;;5096301;28;20429;-75
2022/05/08 00:52:12;;;;;;;13.10;5.40;;;6.30;99.90;;;;;;5096185;28;20425;-74
2022/05/08 00:54:38;;;;;;;15.13;5.30;;;6.20;99.90;;;;;;5096123;28;20051;-74
2022/05/08 00:57:06;;;;;;;14.50;5.05;;;6.20;99.90;;;;;;5078288;28;20048;-75
2022/05/08 00:59:33;;;;;;;15.95;5.45;;;6.20;99.90;;;;;;5095784;28;20113;-75
2022/05/08 01:01:59;;;;;;;14.77;5.93;;;6.10;99.90;;;;;;5095794;28;20467;-74
2022/05/08 01:04:25;;;;;;;25.92;7.93;;;6.10;99.90;;;;;;5095861;28;20043;-75
2022/05/08 01:06:50;;;;;;;16.23;5.93;;;6.10;99.90;;;;;;5095894;28;20158;-75
2022/05/08 01:09:18;;;;;;;17.75;5.93;;;6.20;99.90;;;;;;5078093;28;20054;-76
2022/05/08 01:11:44;;;;;;;25.33;7.97;;;6.10;99.90;;;;;;5078020;28;20047;-76
2022/05/08 01:14:09;;;;;;;23.42;6.35;;;6.10;99.90;;;;;;5077846;28;20334;-76
2022/05/08 01:16:35;;;;;;;17.27;6.10;;;6.00;99.90;;;;;;5095459;28;20459;-76
2022/05/08 01:19:01;;;;;;;18.65;6.55;;;6.00;99.90;;;;;;5077922;28;20340;-75
2022/05/08 01:21:41;;;;;;;31.52;5.88;;;6.00;99.90;;;;;;5095301;28;20052;-75
2022/05/08 01:24:08;;;;;;;205.25;15.75;;;6.00;99.90;;;;;;5094575;28;20131;-75
2022/05/08 01:26:34;;;;;;;143.98;10.15;;;5.90;99.90;;;;;;5077530;28;20420;-75
2022/05/08 01:29:03;;;;;;;14.13;5.07;;;5.80;99.90;;;;;;5095473;28;20071;-76
2022/05/08 01:31:31;;;;;;;13.98;5.18;;;5.80;99.90;;;;;;5060877;28;20048;-74
2022/05/08 01:33:57;;;;;;;10.88;4.45;;;5.70;99.90;;;;;;5077518;28;20051;-74
2022/05/08 01:36:23;;;;;;;15.30;4.82;;;5.80;99.90;;;;;;5094987;28;20050;-75
2022/05/08 01:38:50;;;;;;;13.60;5.93;;;5.70;99.90;;;;;;5077150;28;20051;-76
2022/05/08 01:41:16;;;;;;;12.38;5.00;;;5.70;99.90;;;;;;5095118;28;20055;-76
2022/05/08 01:43:42;;;;;;;8.45;4.05;;;5.70;99.90;;;;;;5094284;28;20043;-75
2022/05/08 01:46:09;;;;;;;14.50;5.53;;;5.70;99.90;;;;;;5077504;28;20078;-76
2022/05/08 01:48:35;;;;;;;24.95;7.10;;;5.70;99.90;;;;;;5077126;28;20076;-76
2022/05/08 01:51:03;;;;;;;16.65;4.53;;;5.60;99.90;;;;;;5091532;28;20090;-74
2022/05/08 01:53:38;;;;;;;19.55;6.60;;;5.60;99.90;;;;;;5076854;28;20044;-75
2022/05/08 01:56:07;;;;;;;10.30;3.58;;;5.60;99.90;;;;;;5077066;28;20048;-75
2022/05/08 01:58:33;;;;;;;14.02;4.63;;;5.60;99.90;;;;;;5076770;28;20044;-76
2022/05/08 02:01:01;;;;;;;13.70;5.20;;;5.50;99.90;;;;;;5094625;28;20040;-75
2022/05/08 02:03:27;;;;;;;16.38;5.05;;;5.50;99.90;;;;;;5094408;28;20040;-74
2022/05/08 02:05:53;;;;;;;18.02;5.97;;;5.50;99.90;;;;;;5076635;28;20036;-75
2022/05/08 02:08:20;;;;;;;19.08;5.00;;;5.50;99.90;;;;;;5094307;28;20059;-76
2022/05/08 02:10:45;;;;;;;13.57;4.65;;;5.50;99.90;;;;;;5094468;28;20144;-76
2022/05/08 02:13:11;;;;;;;17.92;4.22;;;5.50;99.90;;;;;;5076789;28;20453;-75
2022/05/08 02:15:38;;;;;;;11.40;4.30;;;5.50;99.90;;;;;;5094243;28;20368;-77
2022/05/08 02:18:09;;;;;;;16.02;4.35;;;5.50;99.90;;;;;;5076690;28;20186;-76
2022/05/08 02:20:36;;;;;;;52.80;5.97;;;5.40;99.90;;;;;;5076265;28;20149;-74
2022/05/08 02:23:02;;;;;;;9.82;4.30;;;5.40;99.90;;;;;;5094119;28;20437;-75
2022/05/08 02:25:27;;;;;;;11.77;5.25;;;5.40;99.90;;;;;;5094017;28;20051;-74
2022/05/08 02:27:54;;;;;;;16.08;5.20;;;5.40;99.90;;;;;;5076378;28;20043;-75
2022/05/08 02:30:22;;;;;;;13.50;3.88;;;5.40;99.90;;;;;;5093810;28;20048;-76
2022/05/08 02:32:51;;;;;;;16.23;5.63;;;5.40;99.90;;;;;;5076276;28;20118;-74
2022/05/08 02:35:17;;;;;;;18.38;5.10;;;5.40;99.90;;;;;;5093520;28;20057;-75
2022/05/08 02:37:43;;;;;;;56.60;6.70;;;5.30;99.90;;;;;;5076383;28;20122;-74
2022/05/08 02:40:10;;;;;;;15.95;4.93;;;5.30;99.90;;;;;;5093915;28;20083;-75
2022/05/08 02:42:37;;;;;;;26.13;6.18;;;5.30;99.90;;;;;;5093678;28;20441;-74
2022/05/08 02:45:04;;;;;;;21.23;5.55;;;5.30;99.90;;;;;;5093737;28;20051;-76
2022/05/08 02:47:32;;;;;;;11.88;5.13;;;5.30;99.90;;;;;;5094087;28;20036;-75
2022/05/08 02:49:58;;;;;;;12.35;5.35;;;5.30;99.90;;;;;;5093359;28;20121;-76
2022/05/08 02:52:24;;;;;;;16.23;4.35;;;5.30;99.90;;;;;;5093785;28;20461;-75
2022/05/08 02:54:49;;;;;;;16.63;4.93;;;5.30;99.90;;;;;;5071987;28;20115;-76
2022/05/08 03:00:07;;;;;;;14.43;4.75;;;5.30;99.90;;;;;;5073001;28;20477;-74
2022/05/08 03:02:33;;;;;;;14.90;4.80;;;5.30;99.90;;;;;;5055578;28;20127;-77
2022/05/08 03:05:00;;;;;;;13.77;5.32;;;5.20;99.90;;;;;;5072136;28;20131;-76
2022/05/08 03:07:26;;;;;;;13.63;3.63;;;5.20;99.90;;;;;;5055815;28;20113;-75
2022/05/08 03:09:51;;;;;;;10.75;3.90;;;5.20;99.90;;;;;;5072899;28;20052;-74
2022/05/08 03:12:17;;;;;;;11.48;3.70;;;5.20;99.90;;;;;;5072997;28;20434;-74
2022/05/08 03:14:43;;;;;;;8.68;3.40;;;5.10;99.90;;;;;;5055138;28;20055;-76
2022/05/08 03:17:09;;;;;;;12.20;3.95;;;5.10;99.90;;;;;;5055353;28;20052;-74
2022/05/08 03:19:35;;;;;;;16.42;5.50;;;5.10;99.90;;;;;;5072685;28;20069;-74
2022/05/08 03:22:00;;;;;;;15.27;4.38;;;5.10;99.90;;;;;;5072754;28;20127;-74
2022/05/08 03:24:29;;;;;;;17.45;4.90;;;5.10;99.90;;;;;;5054993;28;20713;-76
2022/05/08 03:26:58;;;;;;;14.82;4.13;;;5.10;99.90;;;;;;5055508;28;20136;-75
2022/05/08 03:29:26;;;;;;;12.50;4.03;;;5.10;99.90;;;;;;5072460;28;20119;-76
2022/05/08 03:31:52;;;;;;;16.45;4.85;;;5.00;99.90;;;;;;5055558;28;20370;-75
2022/05/08 03:34:18;;;;;;;11.73;4.30;;;5.00;99.90;;;;;;5072661;28;20087;-75
2022/05/08 03:36:44;;;;;;;14.27;5.43;;;5.00;99.90;;;;;;5055170;28;20076;-74
2022/05/08 03:39:11;;;;;;;18.45;5.60;;;5.00;99.90;;;;;;5038435;28;20304;-75
2022/05/08 03:41:38;;;;;;;17.58;5.15;;;4.90;99.90;;;;;;5072369;28;20115;-74
2022/05/08 03:44:05;;;;;;;12.55;4.43;;;5.00;99.90;;;;;;5072165;28;20460;-75
2022/05/08 03:46:32;;;;;;;19.70;5.22;;;4.90;99.90;;;;;;5072750;28;20036;-76
2022/05/08 03:48:58;;;;;;;15.27;4.93;;;4.90;99.90;;;;;;5055190;28;20044;-74
2022/05/08 03:51:25;;;;;;;8.25;3.95;;;4.90;99.90;;;;;;5072308;28;20480;-75
2022/05/08 03:53:51;;;;;;;16.17;5.03;;;4.90;99.90;;;;;;5072211;28;20041;-74
2022/05/08 03:56:17;;;;;;;12.77;4.40;;;4.90;99.90;;;;;;5054769;28;20123;-75
2022/05/08 03:58:43;;;;;;;12.60;4.97;;;4.90;99.90;;;;;;5082191;28;20141;-75
2022/05/08 04:01:09;;;;;;;15.85;3.92;;;4.90;99.90;;;;;;5074783;28;20365;-77
2022/05/08 04:03:35;;;;;;;42.95;5.53;;;4.90;99.90;;;;;;5074791;28;20044;-74
2022/05/08 04:06:04;;;;;;;20.15;4.35;;;4.90;99.90;;;;;;5092070;28;20364;-74
2022/05/08 04:08:30;;;;;;;20.63;5.18;;;4.90;99.90;;;;;;5092180;28;20449;-75
2022/05/08 04:10:56;;;;;;;20.55;4.10;;;4.90;99.90;;;;;;5092147;28;20044;-75
2022/05/08 04:13:22;;;;;;;7.10;2.00;;;4.90;99.90;;;;;;5092079;28;20040;-74
2022/05/08 04:18:32;;;;;;;10.18;3.70;;;4.80;99.90;;;;;;5074675;28;20139;-75
2022/05/08 04:20:58;;;;;;;4.20;1.80;;;4.80;99.90;;;;;;5074006;28;20510;-77
2022/05/08 04:26:08;;;;;;;7.65;2.42;;;4.80;99.90;;;;;;5092181;28;20381;-74
2022/05/08 04:28:33;;;;;;;226.85;12.95;;;4.80;99.90;;;;;;5074662;28;20055;-75
2022/05/08 04:30:59;;;;;;;199.40;10.45;;;4.80;99.90;;;;;;5057871;28;20054;-75
2022/05/08 04:33:25;;;;;;;5.88;2.10;;;4.70;99.90;;;;;;5092161;28;20044;-76
2022/05/08 04:35:51;;;;;;;6.72;1.83;;;4.80;99.90;;;;;;5074430;28;20115;-76
2022/05/08 04:38:16;;;;;;;137.57;11.05;;;4.80;99.90;;;;;;5074320;28;20079;-75
2022/05/08 04:40:42;;;;;;;36.17;4.60;;;4.80;99.90;;;;;;5074287;28;20345;-75
2022/05/08 04:43:08;;;;;;;9.07;2.53;;;4.80;99.90;;;;;;5092191;28;20052;-77
2022/05/08 04:45:34;;;;;;;11.65;3.67;;;4.90;99.90;;;;;;5074295;28;20052;-75
2022/05/08 04:48:00;;;;;;;19.88;5.53;;;5.00;99.90;;;;;;5091991;28;20122;-75
2022/05/08 04:50:26;;;;;;;11.90;4.20;;;5.00;99.90;;;;;;5091681;28;20114;-76
2022/05/08 04:52:51;;;;;;;10.38;3.75;;;5.10;99.90;;;;;;5091721;28;20446;-74
2022/05/08 04:55:17;;;;;;;12.43;4.88;;;5.20;99.90;;;;;;5091935;28;20082;-76
2022/05/08 04:57:43;;;;;;;14.75;4.15;;;5.30;99.90;;;;;;5074064;28;20047;-75
2022/05/08 05:00:09;;;;;;;17.65;5.07;;;5.40;99.90;;;;;;5091692;28;20047;-75
2022/05/08 05:02:35;;;;;;;12.98;4.28;;;5.40;99.90;;;;;;5073962;28;20079;-75
2022/05/08 05:05:01;;;;;;;13.77;5.05;;;5.50;99.90;;;;;;5073731;28;20086;-76
2022/05/08 05:07:27;;;;;;;18.92;6.28;;;5.60;99.90;;;;;;5091576;28;20077;-75
2022/05/08 05:09:53;;;;;;;14.85;5.55;;;5.70;99.90;;;;;;5091477;28;20032;-75
2022/05/08 05:12:19;;;;;;;12.27;5.60;;;5.80;99.90;;;;;;5091643;28;20484;-76
2022/05/08 05:14:45;;;;;;;15.00;5.47;;;5.90;99.90;;;;;;5091792;28;20040;-73
2022/05/08 05:17:11;;;;;;;13.70;5.93;;;6.00;99.90;;;;;;5074507;28;20072;-76
2022/05/08 05:19:36;;;;;;;21.92;6.30;;;6.10;99.90;;;;;;5077622;28;20048;-74
2022/05/08 05:22:02;;;;;;;16.88;5.00;;;6.20;99.90;;;;;;5095134;28;20052;-73
2022/05/08 05:24:31;;;;;;;14.68;5.38;;;6.40;99.90;;;;;;5074612;28;20115;-75
2022/05/08 05:26:59;;;;;;;14.27;5.35;;;6.50;99.90;;;;;;5095319;28;20074;-76
2022/05/08 05:29:24;;;;;;;14.70;5.88;;;6.60;99.90;;;;;;5095358;28;20360;-76
2022/05/08 05:31:50;;;;;;;11.50;5.07;;;6.70;99.90;;;;;;5095142;28;20040;-75
2022/05/08 05:34:16;;;;;;;12.80;5.30;;;6.80;99.90;;;;;;5095194;28;20137;-74
2022/05/08 05:36:42;;;;;;;13.10;4.63;;;7.00;99.90;;;;;;5094809;28;20044;-75
2022/05/08 05:39:08;;;;;;;8.30;3.58;;;7.20;99.90;;;;;;5095233;28;20051;-75
2022/05/08 05:41:33;;;;;;;14.20;4.45;;;7.30;99.90;;;;;;5077424;28;20069;-76
2022/05/08 05:43:59;;;;;;;21.63;4.75;;;7.40;99.90;;;;;;5094856;28;20048;-76
2022/05/08 05:49:09;;;;;;;14.48;4.05;;;7.60;99.90;;;;;;5094750;28;20153;-77
2022/05/08 05:51:35;;;;;;;7.97;3.75;;;7.80;99.90;;;;;;5094579;28;20087;-77
2022/05/08 05:54:01;;;;;;;15.77;5.28;;;7.90;99.90;;;;;;5077331;28;20047;-76
2022/05/08 05:56:27;;;;;;;11.00;3.53;;;8.10;99.90;;;;;;5094641;28;20036;-75
2022/05/08 05:58:52;;;;;;;13.38;3.25;;;8.20;99.90;;;;;;5091335;28;20044;-77
2022/05/08 06:01:18;;;;;;;10.20;3.45;;;8.30;99.90;;;;;;5094454;28;20121;-76
2022/05/08 06:03:44;;;;;;;13.25;4.00;;;8.40;99.90;;;;;;5094344;28;20135;-77
2022/05/08 06:06:10;;;;;;;7.68;3.13;;;8.60;99.90;;;;;;5077940;28;20044;-75
2022/05/08 06:08:35;;;;;;;9.57;4.20;;;8.80;99.90;;;;;;5097562;28;20044;-78
2022/05/08 06:11:01;;;;;;;10.98;3.25;;;8.90;99.90;;;;;;5076714;28;20082;-78
2022/05/08 06:13:27;;;;;;;12.35;3.88;;;9.10;99.90;;;;;;5076729;28;20051;-76
2022/05/08 06:15:53;;;;;;;9.88;3.03;;;9.20;99.90;;;;;;5094240;28;20105;-77
2022/05/08 06:18:19;;;;;;;7.88;3.08;;;9.40;99.90;;;;;;5094016;28;20194;-76
2022/05/08 06:20:45;;;;;;;13.82;3.17;;;9.50;99.90;;;;;;5076187;28;20119;-77
2022/05/08 06:23:11;;;;;;;10.02;2.42;;;9.60;99.90;;;;;;5094528;28;20131;-76
2022/05/08 06:25:41;;;;;;;10.40;3.35;;;9.80;99.90;;;;;;5076369;28;20052;-76
2022/05/08 06:28:08;;;;;;;7.00;2.55;;;10.10;99.90;;;;;;5094313;28;20040;-76
2022/05/08 06:30:34;;;;;;;8.38;2.83;;;10.30;99.90;;;;;;5094476;28;20036;-77
2022/05/08 06:33:00;;;;;;;10.80;2.42;;;10.40;99.90;;;;;;5076539;28;20105;-76
2022/05/08 06:35:25;;;;;;;11.32;2.90;;;10.50;99.90;;;;;;5094300;28;20128;-77
2022/05/08 06:37:51;;;;;;;9.15;2.15;;;10.60;99.90;;;;;;5107710;28;20410;-76
2022/05/08 06:40:17;;;;;;;8.07;2.65;;;10.90;99.90;;;;;;5096777;28;20271;-77
2022/05/08 06:42:43;;;;;;;7.43;2.20;;;11.10;99.90;;;;;;5096615;28;20043;-76
2022/05/08 06:45:09;;;;;;;7.82;2.53;;;11.30;99.90;;;;;;5114055;28;20471;-77
2022/05/08 06:47:35;;;;;;;15.18;2.53;;;11.40;99.90;;;;;;5114310;28;20433;-76
2022/05/08 06:50:01;;;;;;;4.68;1.67;;;11.60;99.90;;;;;;5114360;28;20047;-78
2022/05/08 06:52:27;;;;;;;6.80;2.17;;;11.80;99.90;;;;;;5114264;28;20100;-77
2022/05/08 06:54:53;;;;;;;6.78;2.00;;;12.00;99.90;;;;;;5114124;28;20047;-78
2022/05/08 06:57:19;;;;;;;12.48;2.08;;;12.30;99.90;;;;;;5096128;28;20044;-78
2022/05/08 07:02:29;;;;;;;4.97;1.42;;;12.80;99.90;;;;;;5093555;28;20334;-78
2022/05/08 07:04:55;;;;;;;8.05;1.60;;;12.90;99.90;;;;;;5075791;28;20042;-78
2022/05/08 07:07:21;;;;;;;8.75;1.65;;;12.90;99.90;;;;;;5093628;28;20046;-78
2022/05/08 07:09:46;;;;;;;8.10;2.08;;;13.20;99.90;;;;;;5076065;28;20055;-77
2022/05/08 07:12:12;;;;;;;7.05;2.15;;;13.40;99.90;;;;;;5093736;28;20452;-78
2022/05/08 07:14:40;;;;;;;11.25;2.10;;;13.40;99.90;;;;;;5075813;28;20105;-80
2022/05/08 07:17:06;;;;;;;8.32;2.17;;;13.30;99.90;;;;;;5075960;28;20384;-78
2022/05/08 07:19:32;;;;;;;6.97;1.98;;;13.10;99.90;;;;;;5092988;28;20056;-78
2022/05/08 07:21:58;;;;;;;7.25;1.90;;;12.90;99.90;;;;;;5075607;28;20048;-77
2022/05/08 07:24:25;;;;;;;6.90;1.50;;;12.80;99.90;;;;;;5093124;28;20055;-77
2022/05/08 07:26:50;;;;;;;7.43;1.85;;;12.70;99.90;;;;;;5075709;28;20051;-79
2022/05/08 07:29:16;;;;;;;7.95;2.03;;;12.80;99.90;;;;;;5092835;28;20115;-78
2022/05/08 07:31:45;;;;;;;8.52;2.20;;;12.90;99.90;;;;;;5093384;28;20043;-77
2022/05/08 07:36:56;;;;;;;8.25;1.75;;;13.40;99.90;;;;;;5093243;28;20135;-78
2022/05/08 07:39:22;;;;;;;8.10;1.67;;;13.80;99.90;;;;;;5093145;28;20407;-79
2022/05/08 07:41:48;;;;;;;8.90;1.60;;;14.00;99.90;;;;;;5074933;28;20040;-78
2022/05/08 07:44:13;;;;;;;7.82;2.10;;;14.30;99.90;;;;;;5092960;28;20066;-78
2022/05/08 07:46:39;;;;;;;8.27;1.70;;;14.60;99.90;;;;;;5092988;28;20039;-78
2022/05/08 07:49:05;;;;;;;7.70;1.90;;;14.80;99.90;;;;;;5092866;28;20119;-78
2022/05/08 07:51:31;;;;;;;9.20;2.67;;;15.10;99.90;;;;;;5092793;28;20054;-77
2022/05/08 07:53:58;;;;;;;8.05;2.05;;;15.30;99.90;;;;;;5092801;28;20044;-78
2022/05/08 07:56:24;;;;;;;9.05;1.85;;;15.40;99.90;;;;;;5075238;28;20044;-78
2022/05/08 07:58:49;;;;;;;3.95;1.63;;;15.50;99.90;;;;;;5075020;28;20055;-78
2022/05/08 08:01:15;;;;;;;9.25;2.33;;;15.70;99.90;;;;;;5075150;28;20333;-79
2022/05/08 08:03:41;;;;;;;8.05;2.10;;;15.80;99.90;;;;;;5092488;28;20079;-77
2022/05/08 08:06:07;;;;;;;8.98;2.25;;;15.90;99.90;;;;;;5092750;28;20039;-79
2022/05/08 08:08:34;;;;;;;8.07;2.17;;;16.10;99.90;;;;;;5091301;28;20067;-79
2022/05/08 08:11:04;;;;;;;7.28;1.85;;;16.30;99.90;;;;;;5091313;28;20547;-78
2022/05/08 08:13:31;;;;;;;8.40;1.63;;;16.50;99.90;;;;;;5074828;28;20117;-78
2022/05/08 08:15:58;;;;;;;7.05;1.95;;;16.90;99.90;;;;;;5071304;28;20458;-80
2022/05/08 08:18:24;;;;;;;8.20;1.98;;;17.00;99.90;;;;;;5072245;28;20040;-80
2022/05/08 08:20:50;;;;;;;10.25;2.05;;;17.20;99.90;;;;;;5054478;28;20135;-79
2022/05/08 08:23:16;;;;;;;6.22;1.85;;;17.30;99.90;;;;;;5072239;28;20063;-79
2022/05/08 08:25:43;;;;;;;8.23;2.17;;;17.30;99.90;;;;;;5071909;28;20048;-78
2022/05/08 08:28:09;;;;;;;7.00;2.17;;;17.40;99.90;;;;;;5066250;28;20040;-79
2022/05/08 08:30:35;;;;;;;8.65;2.35;;;17.50;99.10;;;;;;5092444;28;20079;-80
2022/05/08 08:33:01;;;;;;;6.72;1.50;;;17.60;97.50;;;;;;5092454;28;20526;-81
2022/05/08 08:35:26;;;;;;;8.10;2.50;;;17.60;96.20;;;;;;5074711;28;20058;-78
2022/05/08 08:37:52;;;;;;;8.40;2.20;;;17.60;97.70;;;;;;5092403;28;20044;-79
2022/05/08 08:40:18;;;;;;;9.05;1.90;;;17.70;97.80;;;;;;5074541;28;20051;-78
2022/05/08 08:42:44;;;;;;;4.03;1.38;;;17.70;97.60;;;;;;5092330;28;20047;-77
2022/05/08 08:48:06;;;;;;;5.93;1.77;;;18.00;96.20;;;;;;5092449;28;20421;-78
2022/05/08 08:50:33;;;;;;;8.38;2.15;;;18.10;95.20;;;;;;5074574;28;20048;-80
2022/05/08 08:53:01;;;;;;;7.28;1.73;;;18.00;94.50;;;;;;5094105;28;20054;-79
2022/05/08 08:55:29;;;;;;;7.05;1.75;;;17.60;94.50;;;;;;5096175;28;20040;-79
2022/05/08 08:57:55;;;;;;;7.75;2.25;;;17.20;94.20;;;;;;5078440;28;20079;-78
2022/05/08 09:00:24;;;;;;;6.90;1.75;;;16.80;93.90;;;;;;5096158;28;20399;-76
2022/05/08 09:02:55;;;;;;;6.00;1.65;;;16.50;94.50;;;;;;5096277;28;20114;-79
2022/05/08 09:05:23;;;;;;;7.72;1.80;;;16.30;95.30;;;;;;5095642;28;20094;-78
2022/05/08 09:07:52;;;;;;;10.35;2.10;;;16.20;95.30;;;;;;5095796;28;20465;-78
2022/05/08 09:10:35;;;;;;;6.95;1.92;;;16.50;96.00;;;;;;5092766;28;20040;-80
2022/05/08 09:13:06;;;;;;;6.57;2.38;;;17.20;96.20;;;;;;5078442;28;20055;-87
2022/05/08 09:15:33;;;;;;;6.97;1.90;;;17.60;95.30;;;;;;5078450;28;20036;-80
2022/05/08 09:18:02;;;;;;;5.35;1.80;;;17.40;93.60;;;;;;5096594;28;20078;-78
2022/05/08 09:20:36;;;;;;;7.47;1.70;;;17.10;92.60;;;;;;5095336;28;20407;-77
2022/05/08 09:23:09;;;;;;;8.70;2.05;;;16.80;93.70;;;;;;5095892;28;20135;-78
2022/05/08 09:25:54;;;;;;;8.23;2.40;;;16.80;93.70;;;;;;5077708;28;20051;-78
2022/05/08 09:28:27;;;;;;;8.75;1.55;;;17.10;94.90;;;;;;5095574;28;20040;-78
2022/05/08 09:30:58;;;;;;;6.15;1.60;;;17.60;93.70;;;;;;5077603;28;20353;-78
2022/05/08 09:33:30;;;;;;;4.20;1.52;;;18.20;93.50;;;;;;5095566;28;20388;-77
2022/05/08 09:35:57;;;;;;;6.10;1.63;;;18.20;92.10;;;;;;5095509;28;20145;-79
2022/05/08 09:38:39;;;;;;;6.10;1.75;;;18.30;91.40;;;;;;5095198;28;20438;-79
2022/05/08 09:41:05;;;;;;;6.05;1.73;;;18.60;92.90;;;;;;5094508;28;20044;-78
2022/05/08 09:43:32;;;;;;;8.02;2.35;;;18.80;87.10;;;;;;5077637;28;20056;-78
2022/05/08 09:45:59;;;;;;;8.10;1.80;;;19.00;90.60;;;;;;5094781;28;20040;-78
2022/05/08 09:48:29;;;;;;;9.05;1.92;;;19.10;90.20;;;;;;5095157;28;20306;-77
2022/05/08 09:51:00;;;;;;;8.68;2.00;;;19.10;88.30;;;;;;5095167;28;20040;-80
2022/05/08 09:53:26;;;;;;;7.70;2.17;;;19.00;88.60;;;;;;5094781;28;20059;-77
2022/05/08 09:55:58;;;;;;;9.00;2.00;;;19.30;87.50;;;;;;5094365;28;20040;-76
2022/05/08 09:58:24;;;;;;;5.85;1.85;;;19.30;86.50;;;;;;5078293;28;20345;-76
2022/05/08 10:00:56;;;;;;;6.35;1.95;;;19.30;88.60;;;;;;5095593;28;20054;-78
2022/05/08 10:03:23;;;;;;;10.27;2.13;;;19.40;87.90;;;;;;5076858;28;20048;-77
2022/05/08 10:05:50;;;;;;;8.85;2.05;;;19.70;88.30;;;;;;5094414;28;20052;-78
2022/05/08 10:08:25;;;;;;;7.22;2.03;;;19.80;85.50;;;;;;5094660;28;20357;-78
2022/05/08 10:14:07;;;;;;;5.78;1.98;;;19.70;85.50;;;;;;5094685;28;20043;-78
2022/05/08 10:16:50;;;;;;;7.13;1.92;;;19.90;84.50;;;;;;5094586;28;20082;-78
2022/05/08 10:19:19;;;;;;;7.82;1.90;;;19.90;81.70;;;;;;5075775;28;20453;-78
2022/05/08 10:22:03;;;;;;;6.82;1.95;;;19.80;80.60;;;;;;5074557;28;20048;-78
2022/05/08 10:24:31;;;;;;;6.60;2.13;;;19.60;79.20;;;;;;5056489;28;20059;-78
2022/05/08 10:27:16;;;;;;;6.70;1.70;;;19.50;82.10;;;;;;5056718;28;20041;-78
2022/05/08 10:30:03;;;;;;;5.55;1.42;;;19.80;84.30;;;;;;5073558;28;20460;-79
2022/05/08 10:32:32;;;;;;;9.00;2.25;;;20.10;81.90;;;;;;5073779;28;20052;-80
2022/05/08 10:35:11;;;;;;;8.93;1.73;;;20.40;81.00;;;;;;5056462;28;20064;-77
2022/05/08 10:37:41;;;;;;;7.33;1.97;;;20.60;80.00;;;;;;5073708;28;20044;-78
2022/05/08 10:40:22;;;;;;;6.10;1.63;;;20.50;77.40;;;;;;5073749;28;20484;-79
2022/05/08 10:42:49;;;;;;;7.82;1.90;;;20.70;80.70;;;;;;5056533;28;20087;-78
2022/05/08 10:45:30;;;;;;;7.63;1.90;;;20.80;78.40;;;;;;5056042;28;20055;-78
2022/05/08 10:47:57;;;;;;;7.55;2.15;;;20.70;76.00;;;;;;5073528;28;20059;-79
2022/05/08 10:50:23;;;;;;;6.68;2.17;;;20.70;75.10;;;;;;5073411;28;20120;-78
2022/05/08 10:52:49;;;;;;;6.15;1.70;;;20.60;76.00;;;;;;5073719;28;20098;-78
2022/05/08 10:55:17;;;;;;;5.75;2.47;;;20.60;78.40;;;;;;5039615;28;20048;-80
2022/05/08 10:57:48;;;;;;;9.07;1.73;;;20.50;76.00;;;;;;5056143;28;20040;-80
2022/05/08 11:00:25;;;;;;;11.43;2.20;;;20.40;76.20;;;;;;5073496;28;20097;-79
2022/05/08 11:02:55;;;;;;;5.78;1.63;;;20.60;74.30;;;;;;5039539;28;20044;-79
2022/05/08 11:05:22;;;;;;;;;;;20.70;71.60;;;;;;5056028;28;20044;-79
2022/05/08 11:07:56;;;;;;;9.48;2.00;;;20.80;70.50;;;;;;5056078;28;19916;-78
2022/05/08 11:10:25;;;;;;;11.48;2.05;;;21.00;73.20;;;;;;5073353;28;20681;-79
2022/05/08 11:13:15;;;;;;;5.80;1.95;;;21.20;73.10;;;;;;5073375;28;20055;-80
2022/05/08 11:15:41;;;;;;;12.63;2.50;;;21.30;69.40;;;;;;5072344;28;20037;-78
2022/05/08 11:18:09;;;;;;;8.35;2.10;;;21.00;68.40;;;;;;5073209;28;20124;-78
2022/05/08 11:20:37;;;;;;;6.88;1.83;;;21.00;69.30;;;;;;5063989;28;20372;-79
2022/05/08 11:23:04;;;;;;;9.20;2.28;;;21.10;69.20;;;;;;5072255;28;20045;-80
2022/05/08 11:25:31;;;;;;;7.93;2.30;;;20.90;69.00;;;;;;5072012;28;20367;-79
2022/05/08 11:27:58;;;;;;;7.13;2.10;;;21.00;70.00;;;;;;5072989;28;20040;-81
2022/05/08 11:30:43;;;;;;;7.80;1.85;;;21.10;70.30;;;;;;5069234;28;20040;-78
2022/05/08 11:36:04;;;;;;;8.00;2.40;;;21.30;66.40;;;;;;5073160;28;20567;-79
2022/05/08 11:38:48;;;;;;;8.45;1.77;;;21.00;68.10;;;;;;5071653;28;20048;-79
2022/05/08 11:41:17;;;;;;;7.55;1.92;;;20.80;70.50;;;;;;5071593;28;20048;-77
2022/05/08 11:43:49;;;;;;;6.75;2.40;;;20.70;71.80;;;;;;5073008;28;20045;-79
2022/05/08 11:46:17;;;;;;;7.95;1.95;;;20.70;68.60;;;;;;5071331;28;20048;-78
2022/05/08 11:48:46;;;;;;;7.53;2.10;;;20.80;66.50;;;;;;5072674;28;20409;-80
2022/05/08 11:51:13;;;;;;;9.32;2.42;;;20.80;69.10;;;;;;5071884;28;20052;-78
2022/05/08 11:53:45;;;;;;;6.97;1.80;;;20.80;69.20;;;;;;5071893;28;20110;-80
2022/05/08 11:56:27;;;;;;;7.72;1.92;;;20.60;69.30;;;;;;5072443;28;20036;-79
2022/05/08 11:58:55;;;;;;;10.70;2.58;;;20.40;70.30;;;;;;5073731;28;20115;-79
2022/05/08 12:01:32;;;;;;;5.55;1.80;;;20.40;70.60;;;;;;5054938;28;20059;-81
2022/05/08 12:04:28;;;;;;;6.53;1.98;;;20.50;68.10;;;;;;5072128;28;20036;-78
2022/05/08 12:07:13;;;;;;;6.47;1.77;;;20.50;66.70;;;;;;5054138;28;20079;-77
2022/05/08 12:09:48;;;;;;;6.10;2.00;;;20.30;67.90;;;;;;5060569;28;20037;-79
2022/05/08 12:12:33;;;;;;;7.18;1.98;;;20.30;67.00;;;;;;5072060;28;20128;-77
2022/05/08 12:15:20;;;;;;;6.03;1.75;;;20.40;68.70;;;;;;5072223;28;20056;-78
2022/05/08 12:17:49;;;;;;;8.45;2.45;;;20.30;67.60;;;;;;5070756;28;20048;-78
2022/05/08 12:20:18;;;;;;;9.20;2.47;;;20.10;69.30;;;;;;5081345;28;20384;-78
2022/05/08 12:22:56;;;;;;;10.65;2.20;;;20.10;71.20;;;;;;5092907;28;20102;-77
2022/05/08 12:25:22;;;;;;;8.88;2.10;;;20.00;69.80;;;;;;5092446;28;20377;-78
2022/05/08 12:27:48;;;;;;;9.18;2.40;;;19.90;68.60;;;;;;5080483;28;20349;-78
2022/05/08 12:30:15;;;;;;;8.25;2.22;;;19.80;67.90;;;;;;5098032;28;20035;-78
2022/05/08 12:32:41;;;;;;;6.20;2.22;;;19.70;69.20;;;;;;5096600;28;20418;-78
2022/05/08 12:35:10;;;;;;;5.32;1.83;;;19.70;66.70;;;;;;5094803;28;20302;-78
2022/05/08 12:37:39;;;;;;;5.90;1.97;;;19.70;68.00;;;;;;5079421;28;20083;-81
2022/05/08 12:40:06;;;;;;;5.67;1.80;;;19.70;67.50;;;;;;5061442;28;20048;-79
2022/05/08 12:42:33;;;;;;;5.38;1.83;;;19.60;67.40;;;;;;5067301;28;20036;-78
2022/05/08 12:44:59;;;;;;;6.50;2.42;;;19.50;69.40;;;;;;5095526;28;20083;-77
2022/05/08 12:47:25;;;;;;;8.15;2.00;;;19.50;69.70;;;;;;5072398;28;20165;-78
2022/05/08 12:49:52;;;;;;;8.23;2.42;;;19.60;68.10;;;;;;5096028;28;20119;-79
2022/05/08 12:52:19;;;;;;;6.53;1.95;;;19.50;64.20;;;;;;5094829;28;20052;-79
2022/05/08 12:54:45;;;;;;;5.57;1.90;;;19.40;65.00;;;;;;5080422;28;20059;-78
2022/05/08 12:57:12;;;;;;;8.57;2.92;;;19.30;67.60;;;;;;5091619;28;20047;-78
2022/05/08 12:59:47;;;;;;;6.97;2.00;;;19.40;66.70;;;;;;5077410;28;20040;-78
2022/05/08 13:02:19;;;;;;;6.82;1.73;;;19.40;63.40;;;;;;5081115;28;20063;-78
2022/05/08 13:04:48;;;;;;;9.30;2.58;;;19.20;64.70;;;;;;5098608;28;20040;-78
2022/05/08 13:07:14;;;;;;;8.90;2.28;;;19.00;63.40;;;;;;5098820;28;20535;-80
2022/05/08 13:09:41;;;;;;;7.70;2.33;;;18.80;65.10;;;;;;5081137;28;20044;-79
2022/05/08 13:12:08;;;;;;;8.30;2.30;;;18.70;65.90;;;;;;5098721;28;20047;-78
2022/05/08 13:14:34;;;;;;;8.55;2.10;;;18.80;64.70;;;;;;5080022;28;20044;-78
2022/05/08 13:17:01;;;;;;;7.10;2.03;;;18.90;65.60;;;;;;5088802;28;20036;-78